Dades meteomassalio
Diari Summary for Diciembre 19, 2017 Units:  English    Metric   Both
« Previous Day
Next Day »
Diari Semanal Mensual Anual Personalitzat
  Maxima: Minima: Mijana:
Temperatura: TemperatureC °F -3.3 °F 4.5 °F
Rosada: DewpointC °F -6.7 °F -1.2 °F
Humitat: Humidity % 47 % 68 %
Velocitat del vent: WindSpeedKMH mph 0.0 mph 10 mph
Racha vent: WindSpeedGustKMH mph - -
Vent:- - WNW
Pressio: PressurehPa in 1026.6 in -
Pluja: 0.0 in    
Historical Graphs
 
 
Tabular Data for Diciembre 19, 2017
Time Temperature Dew Point Pressure Wind Wind Speed Wind Gust Humidity Rainfall Rate (Hourly) solar Conditions
TemperatureC °F DewpointC °F PressurehPa in Calm     Humidity % HourlyPrecipMM in SolarRadiationWatts/m^2 W/m2 Conditions
00:04 10.6 °F 7.4 °F 1026.6 in Calm     81 % 0.0 in 0.0 W/m2 CLR
00:07 10.0 °F 6.9 °F 1026.6 in Calm     81 % 0.0 in 0.0 W/m2 CLR
00:10 10.0 °F 6.9 °F 1026.6 in North 12.9 mph 12.9 mph 81 % 0.0 in 0.0 W/m2 CLR
00:15 9.4 °F 6.3 °F 1026.6 in NW 11.3 mph 11.3 mph 81 % 0.0 in 0.0 W/m2 CLR
00:16 9.4 °F 6.3 °F 1026.6 in NNW 11.1 mph 11.1 mph 81 % 0.0 in 0.0 W/m2 CLR
00:18 9.4 °F 6.3 °F 1026.6 in NW 9.3 mph 9.3 mph 81 % 0.0 in 0.0 W/m2 CLR
00:22 9.4 °F 6.5 °F 1026.6 in NW 7.4 mph 7.4 mph 82 % 0.0 in 0.0 W/m2 CLR
00:27 8.9 °F 6.0 °F 1026.6 in NW 5.6 mph   82 % 0.0 in 0.0 W/m2 CLR
00:32 8.9 °F 5.8 °F 1026.6 in NW 9.3 mph 9.3 mph 81 % 0.0 in 0.0 W/m2 CLR
00:34 8.9 °F 6.0 °F 1026.6 in NW 7.4 mph 7.4 mph 82 % 0.0 in 0.0 W/m2 CLR
00:36 8.9 °F 6.0 °F 1027.0 in Calm     82 % 0.0 in 0.0 W/m2 CLR
00:41 8.3 °F 5.3 °F 1026.6 in Calm     81 % 0.0 in 0.0 W/m2 CLR
00:43 8.3 °F 5.3 °F 1027.0 in NNW 11.1 mph 11.1 mph 81 % 0.0 in 0.0 W/m2 CLR
00:48 7.8 °F 4.7 °F 1027.0 in NNW 11.1 mph 11.1 mph 81 % 0.0 in 0.0 W/m2 CLR
00:53 7.8 °F 4.7 °F 1027.0 in North 12.9 mph 12.9 mph 81 % 0.0 in 0.0 W/m2 CLR
00:54 7.8 °F 4.7 °F 1027.0 in NNW 7.4 mph 7.4 mph 81 % 0.0 in 0.0 W/m2 CLR
00:59 7.8 °F 4.7 °F 1027.0 in Calm     81 % 0.0 in 0.0 W/m2 CLR
01:02 7.8 °F 4.6 °F 1027.0 in North 11.1 mph 11.1 mph 80 % 0.0 in 0.0 W/m2 CLR
01:04 7.2 °F 4.0 °F 1027.0 in NNW 5.6 mph   80 % 0.0 in 0.0 W/m2 CLR
01:08 6.7 °F 3.4 °F 1027.0 in NNE 9.7 mph 9.7 mph 80 % 0.0 in 0.0 W/m2 CLR
01:10 6.7 °F 3.4 °F 1027.0 in North 13.0 mph 13.0 mph 80 % 0.0 in 0.0 W/m2 CLR
01:15 6.1 °F 2.9 °F 1027.0 in NNE 14.8 mph 14.8 mph 80 % 0.0 in 0.0 W/m2 CLR
01:16 6.1 °F 2.7 °F 1027.0 in NNE 11.3 mph 11.3 mph 79 % 0.0 in 0.0 W/m2 CLR
01:17 6.1 °F 2.7 °F 1027.0 in North 11.3 mph 11.3 mph 79 % 0.0 in 0.0 W/m2 CLR
01:22 6.1 °F 2.7 °F 1027.0 in North 14.8 mph 14.8 mph 79 % 0.0 in 0.0 W/m2 CLR
01:25 6.1 °F 2.7 °F 1027.0 in NNW 13.0 mph 13.0 mph 79 % 0.0 in 0.0 W/m2 CLR
01:30 6.1 °F 2.6 °F 1027.0 in NNW 11.1 mph 11.1 mph 78 % 0.0 in 0.0 W/m2 CLR
01:31 6.1 °F 2.6 °F 1027.3 in NNW 7.4 mph 7.4 mph 78 % 0.0 in 0.0 W/m2 CLR
01:36 6.7 °F 3.1 °F 1027.3 in Calm     78 % 0.0 in 0.0 W/m2 CLR
01:41 6.1 °F 2.7 °F 1027.7 in Calm     79 % 0.0 in 0.0 W/m2 CLR
01:46 6.1 °F 2.7 °F 1027.3 in Calm     79 % 0.0 in 0.0 W/m2 CLR
01:47 6.1 °F 2.7 °F 1027.3 in Calm     79 % 0.0 in 0.0 W/m2 CLR
01:52 5.6 °F 2.2 °F 1027.3 in Calm     79 % 0.0 in 0.0 W/m2 CLR
01:53 5.6 °F 2.4 °F 1027.7 in Calm     80 % 0.0 in 0.0 W/m2 CLR
01:58 5.6 °F 2.4 °F 1027.7 in NNW 11.1 mph 11.1 mph 80 % 0.0 in 0.0 W/m2 CLR
02:01 5.6 °F 2.6 °F 1027.7 in NW 7.4 mph 7.4 mph 81 % 0.0 in 0.0 W/m2 CLR
02:04 5.6 °F 2.6 °F 1027.7 in NW 6.4 mph 6.4 mph 81 % 0.0 in 0.0 W/m2 CLR
02:09 5.0 °F 2.0 °F 1027.7 in Calm     81 % 0.0 in 0.0 W/m2 CLR
02:10 5.0 °F 2.0 °F 1027.7 in Calm     81 % 0.0 in 0.0 W/m2 CLR
02:11 5.0 °F 2.0 °F 1027.7 in Calm     81 % 0.0 in 0.0 W/m2 CLR
02:16 4.4 °F 1.4 °F 1028.0 in Calm     81 % 0.0 in 0.0 W/m2 CLR
02:17 4.4 °F 1.4 °F 1028.0 in Calm     81 % 0.0 in 0.0 W/m2 CLR
02:22 4.4 °F 1.3 °F 1028.0 in Calm     80 % 0.0 in 0.0 W/m2 CLR
02:26 3.9 °F 0.8 °F 1028.0 in Calm     80 % 0.0 in 0.0 W/m2 CLR
02:27 3.9 °F 0.8 °F 1028.0 in Calm     80 % 0.0 in 0.0 W/m2 CLR
02:32 3.9 °F 0.8 °F 1028.0 in Calm     80 % 0.0 in 0.0 W/m2 CLR
02:34 3.9 °F 0.8 °F 1027.7 in Calm     80 % 0.0 in 0.0 W/m2 CLR
02:36 3.3 °F 0.1 °F 1028.0 in Calm     79 % 0.0 in 0.0 W/m2 CLR
02:39 3.3 °F 0.1 °F 1028.0 in Calm     79 % 0.0 in 0.0 W/m2 CLR
02:41 3.3 °F 0.1 °F 1028.0 in Calm     79 % 0.0 in 0.0 W/m2 CLR
02:46 3.3 °F 0.1 °F 1028.0 in Calm     79 % 0.0 in 0.0 W/m2 CLR
02:51 3.3 °F 0.1 °F 1028.3 in Calm     79 % 0.0 in 0.0 W/m2 CLR
02:52 2.8 °F -0.7 °F 1028.3 in Calm     78 % 0.0 in 0.0 W/m2 CLR
02:57 2.8 °F -0.7 °F 1028.7 in Calm     78 % 0.0 in 0.0 W/m2 CLR
03:02 2.2 °F -1.1 °F 1028.3 in Calm     79 % 0.0 in 0.0 W/m2 CLR
03:03 2.2 °F -1.1 °F 1028.3 in Calm     79 % 0.0 in 0.0 W/m2 CLR
03:08 2.2 °F -0.9 °F 1028.7 in Calm     80 % 0.0 in 0.0 W/m2 CLR
03:09 2.2 °F -0.9 °F 1028.7 in Calm     80 % 0.0 in 0.0 W/m2 CLR
03:14 2.2 °F -0.9 °F 1028.7 in Calm     80 % 0.0 in 0.0 W/m2 CLR
03:15 2.2 °F -0.9 °F 1028.7 in Calm     80 % 0.0 in 0.0 W/m2 CLR
03:20 1.7 °F -1.4 °F 1028.7 in Calm     80 % 0.0 in 0.0 W/m2 CLR
03:25 1.7 °F -1.4 °F 1028.7 in Calm     80 % 0.0 in 0.0 W/m2 CLR
03:26 1.7 °F -1.4 °F 1028.7 in Calm     80 % 0.0 in 0.0 W/m2 CLR
03:29 2.2 °F -0.9 °F 1028.7 in Calm     80 % 0.0 in 0.0 W/m2 CLR
03:32 2.2 °F -0.7 °F 1028.7 in Calm     81 % 0.0 in 0.0 W/m2 CLR
03:37 2.8 °F 0.0 °F 1029.0 in Calm     82 % 0.0 in 0.0 W/m2 CLR
03:42 2.8 °F 0.0 °F 1029.0 in NW 16.7 mph 16.7 mph 82 % 0.0 in 0.0 W/m2 CLR
03:44 3.3 °F 0.6 °F 1029.0 in West 18.5 mph 18.5 mph 82 % 0.0 in 0.0 W/m2 CLR
03:48 3.3 °F 0.4 °F 1028.7 in West 18.5 mph 18.5 mph 81 % 0.0 in 0.0 W/m2 CLR
03:52 3.3 °F 0.2 °F 1028.7 in West 14.8 mph 14.8 mph 80 % 0.0 in 0.0 W/m2 CLR
03:55 3.3 °F 0.2 °F 1029.0 in WNW 16.7 mph 16.7 mph 80 % 0.0 in 0.0 W/m2 CLR
03:57 3.3 °F 0.2 °F 1028.7 in NW 16.7 mph 16.7 mph 80 % 0.0 in 0.0 W/m2 CLR
04:02 4.4 °F 1.1 °F 1029.0 in WNW 16.7 mph 16.7 mph 79 % 0.0 in 0.0 W/m2 CLR
04:07 4.4 °F 1.1 °F 1029.0 in WNW 16.7 mph 16.7 mph 79 % 0.0 in 0.0 W/m2 CLR
04:09 4.4 °F 1.1 °F 1029.0 in WNW 11.1 mph 11.1 mph 79 % 0.0 in 0.0 W/m2 CLR
04:15 5.0 °F 1.5 °F 1029.0 in West 9.7 mph 9.7 mph 78 % 0.0 in 0.0 W/m2 CLR
04:16 5.6 °F 2.0 °F 1029.0 in West 11.1 mph 11.1 mph 78 % 0.0 in 0.0 W/m2 CLR
04:20 6.1 °F 2.6 °F 1029.0 in West 11.3 mph 11.3 mph 78 % 0.0 in 0.0 W/m2 CLR
04:22 6.1 °F 2.6 °F 1029.0 in West 13.0 mph 13.0 mph 78 % 0.0 in 0.0 W/m2 CLR
04:27 6.7 °F 3.3 °F 1029.0 in West 18.5 mph 18.5 mph 79 % 0.0 in 0.0 W/m2 CLR
04:30 6.7 °F 3.3 °F 1029.0 in West 18.5 mph 18.5 mph 79 % 0.0 in 0.0 W/m2 CLR
04:32 6.1 °F 2.7 °F 1029.0 in West 18.5 mph 18.5 mph 79 % 0.0 in 0.0 W/m2 CLR
04:35 6.1 °F 2.7 °F 1029.0 in West 18.5 mph 18.5 mph 79 % 0.0 in 0.0 W/m2 CLR
04:40 6.1 °F 2.7 °F 1029.0 in West 14.5 mph 14.5 mph 79 % 0.0 in 0.0 W/m2 CLR
04:42 5.6 °F 2.2 °F 1029.0 in WNW 18.5 mph 18.5 mph 79 % 0.0 in 0.0 W/m2 CLR
04:47 5.6 °F 2.2 °F 1029.3 in WNW 16.7 mph 16.7 mph 79 % 0.0 in 0.0 W/m2 CLR
04:52 5.0 °F 1.7 °F 1029.3 in West 14.8 mph 14.8 mph 79 % 0.0 in 0.0 W/m2 CLR
04:53 5.0 °F 1.7 °F 1029.3 in West 13.0 mph 13.0 mph 79 % 0.0 in 0.0 W/m2 CLR
04:58 5.0 °F 1.7 °F 1029.3 in West 11.3 mph 11.3 mph 79 % 0.0 in 0.0 W/m2 CLR
05:02 5.6 °F 2.2 °F 1029.3 in West 16.7 mph 16.7 mph 79 % 0.0 in 0.0 W/m2 CLR
05:04 5.0 °F 1.7 °F 1029.3 in West 11.1 mph 11.1 mph 79 % 0.0 in 0.0 W/m2 CLR
05:09 5.6 °F 2.2 °F 1029.3 in West 14.8 mph 14.8 mph 79 % 0.0 in 0.0 W/m2 CLR
05:14 5.0 °F 1.8 °F 1029.7 in West 16.7 mph 16.7 mph 80 % 0.0 in 0.0 W/m2 CLR
05:19 5.0 °F 1.8 °F 1029.7 in West 14.8 mph 14.8 mph 80 % 0.0 in 0.0 W/m2 CLR
05:24 4.4 °F 1.1 °F 1029.7 in West 11.3 mph 11.3 mph 79 % 0.0 in 0.0 W/m2 CLR
05:25 4.4 °F 1.1 °F 1029.7 in West 9.3 mph 9.3 mph 79 % 0.0 in 0.0 W/m2 CLR
05:30 3.9 °F 0.8 °F 1029.7 in West 8.0 mph 8.0 mph 80 % 0.0 in 0.0 W/m2 CLR
05:31 3.9 °F 0.8 °F 1029.7 in West 13.0 mph 13.0 mph 80 % 0.0 in 0.0 W/m2 CLR
05:32 3.3 °F 0.2 °F 1029.7 in WNW 11.1 mph 11.1 mph 80 % 0.0 in 0.0 W/m2 CLR
05:36 3.3 °F 0.2 °F 1029.7 in West 11.1 mph 11.1 mph 80 % 0.0 in 0.0 W/m2 CLR
05:41 2.8 °F -0.3 °F 1029.7 in Calm     80 % 0.0 in 0.0 W/m2 CLR
05:43 2.8 °F -0.3 °F 1029.7 in Calm     80 % 0.0 in 0.0 W/m2 CLR
05:48 2.2 °F -0.9 °F 1029.7 in West 7.4 mph 7.4 mph 80 % 0.0 in 0.0 W/m2 CLR
05:52 2.2 °F -0.9 °F 1029.7 in West 13.0 mph 13.0 mph 80 % 0.0 in 0.0 W/m2 CLR
05:56 2.2 °F -0.7 °F 1030.0 in WNW 14.8 mph 14.8 mph 81 % 0.0 in 0.0 W/m2 CLR
05:58 2.2 °F -0.7 °F 1030.0 in West 16.7 mph 16.7 mph 81 % 0.0 in 0.0 W/m2 CLR
06:03 1.7 °F -1.4 °F 1030.0 in WNW 11.1 mph 11.1 mph 80 % 0.0 in 0.0 W/m2 CLR
06:07 1.7 °F -1.4 °F 1030.0 in West 16.7 mph 16.7 mph 80 % 0.0 in 0.0 W/m2 CLR
06:08 1.7 °F -1.4 °F 1030.0 in West 14.8 mph 14.8 mph 80 % 0.0 in 0.0 W/m2 CLR
06:13 1.1 °F -2.1 °F 1030.4 in West 11.1 mph 11.1 mph 79 % 0.0 in 0.0 W/m2 CLR
06:18 1.1 °F -2.1 °F 1030.4 in West 14.8 mph 14.8 mph 79 % 0.0 in 0.0 W/m2 CLR
06:19 1.1 °F -2.1 °F 1030.4 in West 16.7 mph 16.7 mph 79 % 0.0 in 0.0 W/m2 CLR
06:20 1.7 °F -1.6 °F 1030.4 in West 16.7 mph 16.7 mph 79 % 0.0 in 0.0 W/m2 CLR
06:25 3.3 °F 0.1 °F 1030.4 in West 16.7 mph 16.7 mph 79 % 0.0 in 0.0 W/m2 CLR
06:26 3.3 °F 0.1 °F 1030.4 in West 16.7 mph 16.7 mph 79 % 0.0 in 0.0 W/m2 CLR
06:28 3.9 °F 0.6 °F 1030.4 in West 16.7 mph 16.7 mph 79 % 0.0 in 0.0 W/m2 CLR
06:32 4.4 °F 1.3 °F 1030.4 in WNW 14.8 mph 14.8 mph 80 % 0.0 in 0.0 W/m2 CLR
06:38 4.4 °F 1.3 °F 1030.7 in WNW 18.5 mph 18.5 mph 80 % 0.0 in 0.0 W/m2 CLR
06:39 4.4 °F 1.3 °F 1030.7 in WNW 16.7 mph 16.7 mph 80 % 0.0 in 0.0 W/m2 CLR
06:44 4.4 °F 1.3 °F 1030.7 in WNW 20.4 mph 20.4 mph 80 % 0.0 in 0.0 W/m2 CLR
06:49 4.4 °F 1.1 °F 1030.7 in WNW 18.5 mph 18.5 mph 79 % 0.0 in 0.0 W/m2 CLR
06:52 5.0 °F 1.7 °F 1030.7 in WNW 20.4 mph 20.4 mph 79 % 0.0 in 0.0 W/m2 CLR
06:54 5.0 °F 1.5 °F 1030.7 in WNW 16.7 mph 16.7 mph 78 % 0.0 in 0.0 W/m2 CLR
06:57 5.0 °F 1.5 °F 1030.7 in WNW 16.7 mph 16.7 mph 78 % 0.0 in 0.0 W/m2 CLR
07:01 4.4 °F 0.9 °F 1030.7 in WNW 16.7 mph 16.7 mph 78 % 0.0 in 0.0 W/m2 CLR
07:02 4.4 °F 0.9 °F 1030.7 in WNW 18.5 mph 18.5 mph 78 % 0.0 in 0.0 W/m2 CLR
07:07 4.4 °F 0.9 °F 1030.7 in WNW 16.7 mph 16.7 mph 78 % 0.0 in 0.0 W/m2 CLR
07:08 4.4 °F 0.9 °F 1031.0 in WNW 14.8 mph 14.8 mph 78 % 0.0 in 0.0 W/m2 CLR
07:13 4.4 °F 0.9 °F 1031.0 in WNW 18.5 mph 18.5 mph 78 % 0.0 in 0.0 W/m2 CLR
07:17 4.4 °F 0.9 °F 1031.0 in WNW 18.5 mph 18.5 mph 78 % 0.0 in 0.0 W/m2 CLR
07:18 4.4 °F 0.9 °F 1031.0 in WNW 18.5 mph 18.5 mph 78 % 0.0 in 0.0 W/m2 CLR
07:23 4.4 °F 0.9 °F 1031.0 in West 20.4 mph 20.4 mph 78 % 0.0 in 0.0 W/m2 CLR
07:25 4.4 °F 0.9 °F 1031.0 in West 16.7 mph 16.7 mph 78 % 0.0 in 0.0 W/m2 CLR
07:26 4.4 °F 0.8 °F 1031.0 in WNW 20.4 mph 20.4 mph 77 % 0.0 in 0.0 W/m2 CLR
07:30 4.4 °F 0.8 °F 1031.0 in WNW 16.7 mph 16.7 mph 77 % 0.0 in 0.0 W/m2 CLR
07:31 4.4 °F 0.8 °F 1031.0 in West 18.5 mph 18.5 mph 77 % 0.0 in 0.0 W/m2 CLR
07:33 4.4 °F 0.8 °F 1031.0 in WNW 18.5 mph 18.5 mph 77 % 0.0 in 0.0 W/m2 CLR
07:36 4.4 °F 0.8 °F 1031.4 in West 18.5 mph 18.5 mph 77 % 0.0 in 0.0 W/m2 CLR
07:41 4.4 °F 0.8 °F 1031.4 in West 14.8 mph 14.8 mph 77 % 0.0 in 0.0 W/m2 CLR
07:42 4.4 °F 0.8 °F 1031.4 in WNW 14.8 mph 14.8 mph 77 % 0.0 in 0.0 W/m2 CLR
07:44 4.4 °F 0.8 °F 1031.4 in WNW 13.0 mph 13.0 mph 77 % 0.0 in 0.0 W/m2 CLR
07:49 4.4 °F 0.6 °F 1031.7 in WNW 14.5 mph 14.5 mph 76 % 0.0 in 0.0 W/m2 CLR
07:50 4.4 °F 0.6 °F 1031.4 in WNW 16.7 mph 16.7 mph 76 % 0.0 in 0.0 W/m2 CLR
07:55 4.4 °F 0.6 °F 1031.7 in WNW 16.7 mph 16.7 mph 76 % 0.0 in 0.0 W/m2 CLR
08:00 4.4 °F 0.6 °F 1031.7 in WNW 16.7 mph 16.7 mph 76 % 0.0 in 0.0 W/m2 CLR
08:02 3.9 °F 0.1 °F 1031.7 in WNW 14.8 mph 14.8 mph 76 % 0.0 in 0.0 W/m2 CLR
08:07 3.9 °F -0.2 °F 1032.1 in West 9.3 mph 9.3 mph 75 % 0.0 in 0.0 W/m2 CLR
08:08 3.9 °F -0.2 °F 1032.1 in WNW 9.3 mph 9.3 mph 75 % 0.0 in 0.0 W/m2 CLR
08:13 3.3 °F -0.7 °F 1032.1 in WNW 16.7 mph 16.7 mph 75 % 0.0 in 0.0 W/m2 OVC
08:14 3.3 °F -0.7 °F 1032.1 in WNW 16.7 mph 16.7 mph 75 % 0.0 in 0.0 W/m2 OVC
08:18 2.8 °F -1.4 °F 1032.1 in West 16.7 mph 16.7 mph 74 % 0.0 in 0.0 W/m2 OVC
08:20 2.8 °F -1.4 °F 1032.4 in WNW 9.3 mph 9.3 mph 74 % 0.0 in 5.0 W/m2 OVC
08:24 2.2 °F -1.9 °F 1032.4 in Calm     74 % 0.0 in 7.0 W/m2 OVC
08:29 1.7 °F -2.3 °F 1032.4 in WNW 5.6 mph 5.6 mph 75 % 0.0 in 9.0 W/m2 BKN
08:30 1.7 °F -2.3 °F 1032.4 in West 5.6 mph 5.6 mph 75 % 0.0 in 9.0 W/m2 BKN
08:35 1.7 °F -2.3 °F 1032.4 in West 3.2 mph 3.2 mph 75 % 0.0 in 11.0 W/m2 BKN
08:36 1.7 °F -2.3 °F 1032.4 in WNW 5.6 mph 5.6 mph 75 % 0.0 in 11.0 W/m2 BKN
08:41 1.1 °F -2.8 °F 1032.4 in WNW 9.3 mph 9.3 mph 75 % 0.0 in 12.0 W/m2 BKN
08:42 1.1 °F -2.7 °F 1032.4 in WNW 4.8 mph 4.8 mph 76 % 0.0 in 14.0 W/m2 BKN
08:44 1.1 °F -2.7 °F 1032.4 in WNW 6.4 mph 6.4 mph 76 % 0.0 in 14.0 W/m2 BKN
08:49 1.1 °F -2.7 °F 1032.4 in West 5.6 mph 5.6 mph 76 % 0.0 in 18.0 W/m2 BKN
08:52 0.6 °F -3.4 °F 1032.7 in Calm     75 % 0.0 in 19.0 W/m2 BKN
08:54 0.6 °F -3.4 °F 1032.7 in Calm     75 % 0.0 in 23.0 W/m2 BKN
08:58 0.6 °F -3.4 °F 1032.7 in Calm     75 % 0.0 in 26.0 W/m2 BKN
09:00 0.6 °F -3.4 °F 1032.7 in West 3.7 mph   75 % 0.0 in 37.0 W/m2 BKN
09:05 0.6 °F -3.6 °F 1033.1 in West 5.6 mph 5.6 mph 74 % 0.0 in 47.0 W/m2 BKN
09:06 0.6 °F -3.6 °F 1033.1 in West 5.6 mph 5.6 mph 74 % 0.0 in 47.0 W/m2 BKN
09:11 0.6 °F -3.6 °F 1033.1 in WNW 4.8 mph 4.8 mph 74 % 0.0 in 58.0 W/m2 SCT
09:12 0.6 °F -3.6 °F 1033.4 in West 6.4 mph 6.4 mph 74 % 0.0 in 53.0 W/m2 SCT
09:17 1.1 °F -3.4 °F 1033.1 in WSW 13.0 mph 13.0 mph 72 % 0.0 in 72.0 W/m2 FEW
09:18 1.1 °F -3.4 °F 1033.4 in WSW 13.0 mph   72 % 0.0 in 74.0 W/m2 FEW
09:23 1.1 °F -3.4 °F 1033.4 in Calm   1.3 mph 72 % 0.0 in 84.0 W/m2 FEW
09:28 1.7 °F -3.1 °F 1033.4 in WNW 17.7 mph 17.7 mph 71 % 0.0 in 90.0 W/m2 FEW
09:29 1.7 °F -3.4 °F 1033.4 in NW 18.5 mph 18.5 mph 69 % 0.0 in 81.0 W/m2 CLR
09:30 2.2 °F -2.9 °F 1033.7 in WNW 18.5 mph 18.5 mph 69 % 0.0 in 104.0 W/m2 CLR
09:35 3.3 °F -2.0 °F 1033.7 in WNW 13.0 mph 13.0 mph 68 % 0.0 in 118.0 W/m2 CLR
09:36 3.3 °F -2.0 °F 1033.4 in WNW 13.0 mph 13.0 mph 68 % 0.0 in 118.0 W/m2 CLR
09:37 3.9 °F -1.5 °F 1033.7 in West 19.3 mph 19.3 mph 68 % 0.0 in 123.0 W/m2 CLR
09:42 4.4 °F -1.2 °F 1033.4 in West 16.7 mph 16.7 mph 67 % 0.0 in 132.0 W/m2 CLR
09:46 4.4 °F -1.3 °F 1033.7 in NW 18.5 mph 18.5 mph 66 % 0.0 in 148.0 W/m2 CLR
09:49 5.0 °F -0.8 °F 1033.7 in NW 14.8 mph 14.8 mph 66 % 0.0 in 156.0 W/m2 CLR
09:54 5.6 °F -0.3 °F 1033.7 in NW 20.9 mph 20.9 mph 66 % 0.0 in 172.0 W/m2 CLR
09:57 5.6 °F -0.3 °F 1034.1 in WNW 18.5 mph 18.5 mph 66 % 0.0 in 151.0 W/m2 CLR
09:59 6.1 °F 0.0 °F 1033.7 in WNW 18.5 mph 18.5 mph 65 % 0.0 in 125.0 W/m2 CLR
10:03 6.1 °F 0.2 °F 1034.1 in WNW 16.7 mph 16.7 mph 66 % 0.0 in 158.0 W/m2 CLR
10:06 6.1 °F 0.0 °F 1034.1 in NNW 14.8 mph 14.8 mph 65 % 0.0 in 121.0 W/m2 CLR
10:10 6.7 °F 0.6 °F 1034.1 in NW 18.5 mph 18.5 mph 65 % 0.0 in 171.0 W/m2 CLR
10:16 6.7 °F 0.3 °F 1034.4 in NW 16.7 mph 16.7 mph 64 % 0.0 in 229.0 W/m2 CLR
10:21 6.7 °F 0.3 °F 1034.4 in WNW 18.5 mph 18.5 mph 64 % 0.0 in 243.0 W/m2 CLR
10:22 6.7 °F 0.1 °F 1034.4 in WNW 18.5 mph 18.5 mph 63 % 0.0 in 246.0 W/m2 CLR
10:27 6.7 °F 0.3 °F 1034.4 in WNW 16.7 mph 16.7 mph 64 % 0.0 in 257.0 W/m2 CLR
10:29 6.7 °F 0.1 °F 1034.4 in WNW 20.4 mph 20.4 mph 63 % 0.0 in 260.0 W/m2 CLR
10:33 7.2 °F 0.4 °F 1034.4 in NW 31.5 mph 31.5 mph 62 % 0.0 in 269.0 W/m2 CLR
10:34 7.2 °F 0.4 °F 1034.4 in NW 22.2 mph 22.2 mph 62 % 0.0 in 271.0 W/m2 CLR
10:39 7.2 °F -0.1 °F 1034.8 in NW 24.1 mph 24.1 mph 60 % 0.0 in 281.0 W/m2 CLR
10:40 7.2 °F -0.1 °F 1034.8 in WNW 24.1 mph 24.1 mph 60 % 0.0 in 285.0 W/m2 CLR
10:45 7.2 °F -0.1 °F 1034.8 in NW 22.2 mph 22.2 mph 60 % 0.0 in 294.0 W/m2 CLR
10:50 7.2 °F -0.1 °F 1034.8 in NW 22.5 mph 22.5 mph 60 % 0.0 in 302.0 W/m2 CLR
10:52 7.8 °F 0.5 °F 1034.8 in WNW 22.2 mph 22.2 mph 60 % 0.0 in 306.0 W/m2 CLR
10:56 7.8 °F 0.5 °F 1034.8 in NW 20.4 mph 20.4 mph 60 % 0.0 in 313.0 W/m2 CLR
11:01 7.8 °F 0.5 °F 1034.8 in NW 22.2 mph 22.2 mph 60 % 0.0 in 322.0 W/m2 CLR
11:02 7.8 °F 0.5 °F 1034.8 in NW 24.1 mph 24.1 mph 60 % 0.0 in 325.0 W/m2 CLR
11:07 7.8 °F 0.5 °F 1034.8 in NW 24.1 mph 24.1 mph 60 % 0.0 in 330.0 W/m2 CLR
11:12 7.8 °F 0.5 °F 1035.1 in NNW 24.1 mph 24.1 mph 60 % 0.0 in 339.0 W/m2 CLR
11:13 7.8 °F 0.5 °F 1035.1 in NNW 24.1 mph 24.1 mph 60 % 0.0 in 341.0 W/m2 CLR
11:17 7.8 °F 0.3 °F 1035.1 in West 24.1 mph 24.1 mph 59 % 0.0 in 346.0 W/m2 CLR
11:20 7.8 °F 0.3 °F 1035.1 in WNW 20.4 mph 20.4 mph 59 % 0.0 in 352.0 W/m2 CLR
11:25 7.8 °F 0.0 °F 1034.8 in WNW 14.8 mph 14.8 mph 58 % 0.0 in 359.0 W/m2 CLR
11:26 7.8 °F 0.3 °F 1034.8 in WNW 20.9 mph 20.9 mph 59 % 0.0 in 359.0 W/m2 CLR
11:31 7.8 °F 0.0 °F 1034.8 in NW 25.9 mph 25.9 mph 58 % 0.0 in 367.0 W/m2 CLR
11:36 8.3 °F 0.6 °F 1034.8 in NW 20.9 mph 20.9 mph 58 % 0.0 in 374.0 W/m2 CLR
11:37 8.3 °F 0.6 °F 1034.8 in WNW 20.4 mph 20.4 mph 58 % 0.0 in 374.0 W/m2 CLR
11:42 8.3 °F 0.8 °F 1034.8 in NNW 24.1 mph 24.1 mph 59 % 0.0 in 381.0 W/m2 CLR
11:43 8.3 °F 0.8 °F 1034.8 in NNW 24.1 mph 24.1 mph 59 % 0.0 in 381.0 W/m2 CLR
11:46 8.3 °F 0.6 °F 1034.8 in NW 20.4 mph 20.4 mph 58 % 0.0 in 387.0 W/m2 CLR
11:51 8.3 °F 0.6 °F 1034.8 in NW 16.7 mph 16.7 mph 58 % 0.0 in 390.0 W/m2 CLR
11:53 8.3 °F 0.3 °F 1034.8 in WNW 18.5 mph 18.5 mph 57 % 0.0 in 392.0 W/m2 CLR
11:58 8.3 °F 0.6 °F 1034.8 in North 22.5 mph 22.5 mph 58 % 0.0 in 397.0 W/m2 CLR
12:03 8.9 °F 0.6 °F 1034.8 in WNW 18.5 mph 18.5 mph 56 % 0.0 in 403.0 W/m2 CLR
12:04 8.3 °F 0.3 °F 1034.8 in NW 18.5 mph 18.5 mph 57 % 0.0 in 403.0 W/m2 CLR
12:09 8.9 °F 0.6 °F 1034.8 in NW 24.1 mph 24.1 mph 56 % 0.0 in 406.0 W/m2 CLR
12:10 8.9 °F 0.6 °F 1034.8 in WNW 24.1 mph 24.1 mph 56 % 0.0 in 404.0 W/m2 CLR
12:15 8.9 °F 0.8 °F 1034.8 in WNW 18.5 mph 18.5 mph 57 % 0.0 in 410.0 W/m2 CLR
12:16 8.9 °F 0.8 °F 1034.8 in NW 16.7 mph 16.7 mph 57 % 0.0 in 410.0 W/m2 CLR
12:18 8.9 °F 0.8 °F 1034.4 in WNW 27.4 mph 27.4 mph 57 % 0.0 in 413.0 W/m2 CLR
12:21 8.9 °F 0.6 °F 1034.4 in NNW 24.1 mph 24.1 mph 56 % 0.0 in 415.0 W/m2 CLR
12:25 8.9 °F 0.6 °F 1034.4 in NW 18.5 mph 18.5 mph 56 % 0.0 in 415.0 W/m2 CLR
12:27 8.9 °F 0.6 °F 1034.4 in NW 20.4 mph 20.4 mph 56 % 0.0 in 418.0 W/m2 CLR
12:30 8.9 °F 0.3 °F 1034.4 in WNW 16.7 mph 16.7 mph 55 % 0.0 in 420.0 W/m2 CLR
12:35 8.9 °F 0.3 °F 1034.4 in NW 18.5 mph 18.5 mph 55 % 0.0 in 422.0 W/m2 CLR
12:40 8.9 °F 0.3 °F 1034.4 in NW 13.0 mph 13.0 mph 55 % 0.0 in 422.0 W/m2 CLR
12:41 8.9 °F 0.3 °F 1034.4 in NW 14.5 mph 14.5 mph 55 % 0.0 in 422.0 W/m2 CLR
12:46 9.4 °F 0.6 °F 1034.4 in NW 27.8 mph 27.8 mph 54 % 0.0 in 424.0 W/m2 CLR
12:48 9.4 °F 0.6 °F 1034.4 in North 19.3 mph 19.3 mph 54 % 0.0 in 425.0 W/m2 CLR
12:49 9.4 °F 0.6 °F 1034.4 in NNW 18.5 mph 18.5 mph 54 % 0.0 in 425.0 W/m2 CLR
12:54 9.4 °F 0.6 °F 1034.4 in NW 22.2 mph 22.2 mph 54 % 0.0 in 425.0 W/m2 CLR
12:59 9.4 °F 0.6 °F 1034.4 in NNW 18.5 mph 18.5 mph 54 % 0.0 in 424.0 W/m2 CLR
13:03 9.4 °F 0.3 °F 1034.4 in NNW 22.2 mph 22.2 mph 53 % 0.0 in 424.0 W/m2 CLR
13:05 9.4 °F 0.3 °F 1034.4 in North 25.7 mph 25.7 mph 53 % 0.0 in 424.0 W/m2 CLR
13:10 10.0 °F 0.6 °F 1034.4 in NW 18.5 mph 18.5 mph 52 % 0.0 in 424.0 W/m2 CLR
13:11 10.0 °F 0.6 °F 1034.4 in NNW 20.4 mph 20.4 mph 52 % 0.0 in 424.0 W/m2 CLR
13:15 9.4 °F 0.1 °F 1034.8 in NNW 20.4 mph 20.4 mph 52 % 0.0 in 424.0 W/m2 CLR
13:20 10.0 °F 0.3 °F 1034.4 in NNW 20.9 mph 20.9 mph 51 % 0.0 in 422.0 W/m2 CLR
13:22 9.4 °F 0.1 °F 1034.4 in NNW 20.4 mph 20.4 mph 52 % 0.0 in 420.0 W/m2 CLR
13:26 9.4 °F 0.1 °F 1034.4 in NNW 13.0 mph 13.0 mph 52 % 0.0 in 420.0 W/m2 CLR
13:31 10.0 °F 0.3 °F 1034.4 in NW 18.5 mph 18.5 mph 51 % 0.0 in 418.0 W/m2 CLR
13:34 10.0 °F 0.3 °F 1034.1 in WNW 18.5 mph 18.5 mph 51 % 0.0 in 415.0 W/m2 CLR
13:36 10.0 °F 0.1 °F 1034.1 in WNW 18.5 mph 18.5 mph 50 % 0.0 in 415.0 W/m2 CLR
13:41 10.0 °F 0.3 °F 1034.1 in North 24.1 mph 24.1 mph 51 % 0.0 in 413.0 W/m2 CLR
13:42 10.0 °F 0.3 °F 1034.1 in NNW 24.1 mph 24.1 mph 51 % 0.0 in 411.0 W/m2 CLR
13:43 10.0 °F 0.3 °F 1034.1 in WNW 20.9 mph 20.9 mph 51 % 0.0 in 410.0 W/m2 CLR
13:47 10.6 °F 0.6 °F 1034.1 in WNW 18.5 mph 18.5 mph 50 % 0.0 in 406.0 W/m2 CLR
13:52 10.0 °F 0.3 °F 1033.7 in NW 22.2 mph 22.2 mph 51 % 0.0 in 404.0 W/m2 CLR
13:53 10.0 °F 0.3 °F 1033.7 in NW 22.2 mph 22.2 mph 51 % 0.0 in 403.0 W/m2 CLR
13:58 10.6 °F 0.6 °F 1033.7 in North 22.2 mph 22.2 mph 50 % 0.0 in 399.0 W/m2 CLR
14:03 10.6 °F 0.3 °F 1033.7 in NNW 18.5 mph 18.5 mph 49 % 0.0 in 394.0 W/m2 CLR
14:04 10.6 °F 0.3 °F 1033.7 in NW 18.5 mph 18.5 mph 49 % 0.0 in 394.0 W/m2 CLR
14:09 10.6 °F 0.3 °F 1033.7 in NW 20.4 mph 20.4 mph 49 % 0.0 in 387.0 W/m2 CLR
14:13 10.6 °F 0.3 °F 1033.7 in North 20.4 mph 20.4 mph 49 % 0.0 in 383.0 W/m2 CLR
14:14 10.6 °F 0.3 °F 1034.1 in NW 14.8 mph 14.8 mph 49 % 0.0 in 381.0 W/m2 CLR
14:19 10.6 °F 0.3 °F 1033.7 in North 18.5 mph 18.5 mph 49 % 0.0 in 376.0 W/m2 CLR
14:24 10.6 °F 0.3 °F 1033.7 in NW 20.4 mph 20.4 mph 49 % 0.0 in 369.0 W/m2 CLR
14:25 10.6 °F 0.3 °F 1033.7 in NNW 20.4 mph 20.4 mph 49 % 0.0 in 369.0 W/m2 CLR
14:30 10.6 °F 0.3 °F 1034.1 in NNW 12.9 mph 12.9 mph 49 % 0.0 in 362.0 W/m2 CLR
14:31 10.6 °F 0.3 °F 1034.1 in NW 18.5 mph 18.5 mph 49 % 0.0 in 360.0 W/m2 CLR
14:33 10.6 °F 0.0 °F 1034.1 in NW 9.7 mph 9.7 mph 48 % 0.0 in 357.0 W/m2 CLR
14:37 10.6 °F 0.3 °F 1034.1 in NW 16.7 mph 16.7 mph 49 % 0.0 in 352.0 W/m2 CLR
14:42 10.6 °F 0.3 °F 1034.1 in NNW 18.5 mph 18.5 mph 49 % 0.0 in 345.0 W/m2 CLR
14:47 10.6 °F 0.3 °F 1033.7 in NNW 11.3 mph 11.3 mph 49 % 0.0 in 338.0 W/m2 CLR
14:51 11.1 °F 0.5 °F 1033.7 in NW 14.8 mph 14.8 mph 48 % 0.0 in 332.0 W/m2 CLR
14:52 11.1 °F 0.5 °F 1033.7 in NNW 17.7 mph 17.7 mph 48 % 0.0 in 329.0 W/m2 CLR
14:54 11.1 °F 0.5 °F 1033.7 in North 16.7 mph 16.7 mph 48 % 0.0 in 325.0 W/m2 CLR
14:59 11.1 °F 0.5 °F 1033.7 in WNW 19.3 mph 19.3 mph 48 % 0.0 in 318.0 W/m2 CLR
15:00 11.1 °F 0.5 °F 1033.7 in North 20.4 mph 20.4 mph 48 % 0.0 in 316.0 W/m2 CLR
15:05 10.6 °F 0.0 °F 1033.4 in NW 16.7 mph 16.7 mph 48 % 0.0 in 308.0 W/m2 CLR
15:08 10.6 °F 0.0 °F 1033.4 in WNW 13.0 mph 13.0 mph 48 % 0.0 in 302.0 W/m2 CLR
15:13 11.1 °F 0.5 °F 1033.4 in NNW 18.5 mph 18.5 mph 48 % 0.0 in 294.0 W/m2 CLR
15:18 11.1 °F 0.5 °F 1033.4 in NNW 18.5 mph 18.5 mph 48 % 0.0 in 281.0 W/m2 CLR
15:23 11.1 °F 0.5 °F 1033.4 in NW 22.2 mph 22.2 mph 48 % 0.0 in 271.0 W/m2 CLR
15:24 11.1 °F 0.5 °F 1033.4 in NW 16.7 mph 16.7 mph 48 % 0.0 in 269.0 W/m2 CLR
15:25 11.1 °F 0.5 °F 1033.4 in NW 16.7 mph 16.7 mph 48 % 0.0 in 269.0 W/m2 CLR
15:30 11.1 °F 0.5 °F 1033.4 in NW 16.7 mph 16.7 mph 48 % 0.0 in 255.0 W/m2 CLR
15:32 11.1 °F 0.5 °F 1033.4 in NW 14.8 mph 14.8 mph 48 % 0.0 in 250.0 W/m2 CLR
15:33 10.6 °F 0.0 °F 1033.4 in North 16.7 mph 16.7 mph 48 % 0.0 in 246.0 W/m2 CLR
15:38 10.6 °F 0.0 °F 1033.7 in NW 16.7 mph 16.7 mph 48 % 0.0 in 234.0 W/m2 CLR
15:41 10.6 °F 0.0 °F 1033.7 in WNW 18.5 mph 18.5 mph 48 % 0.0 in 225.0 W/m2 CLR
15:43 11.1 °F 0.5 °F 1033.7 in NNW 14.8 mph 14.8 mph 48 % 0.0 in 221.0 W/m2 CLR
15:48 10.6 °F 0.0 °F 1033.7 in NW 18.5 mph 18.5 mph 48 % 0.0 in 207.0 W/m2 CLR
15:53 10.6 °F 0.0 °F 1033.7 in NW 16.1 mph 16.1 mph 48 % 0.0 in 195.0 W/m2 CLR
15:58 10.0 °F -0.5 °F 1033.7 in NNW 18.5 mph 18.5 mph 48 % 0.0 in 181.0 W/m2 CLR
16:03 10.0 °F -0.5 °F 1033.7 in NNW 18.5 mph 18.5 mph 48 % 0.0 in 169.0 W/m2 CLR
16:05 10.0 °F -0.5 °F 1033.7 in NW 20.4 mph 20.4 mph 48 % 0.0 in 162.0 W/m2 CLR
16:10 10.0 °F -0.5 °F 1033.7 in NNW 18.5 mph 18.5 mph 48 % 0.0 in 148.0 W/m2 CLR
16:11 9.4 °F -1.1 °F 1033.7 in NNW 16.7 mph 16.7 mph 48 % 0.0 in 146.0 W/m2 CLR
16:16 9.4 °F -1.1 °F 1033.7 in NW 14.8 mph 14.8 mph 48 % 0.0 in 130.0 W/m2 CLR
16:18 9.4 °F -1.1 °F 1033.7 in NW 13.0 mph 13.0 mph 48 % 0.0 in 128.0 W/m2 CLR
16:23 9.4 °F -1.3 °F 1033.4 in NW 16.7 mph 16.7 mph 47 % 0.0 in 114.0 W/m2 CLR
16:25 9.4 °F -1.1 °F 1033.7 in NW 16.7 mph 16.7 mph 48 % 0.0 in 107.0 W/m2 CLR
16:28 9.4 °F -1.1 °F 1033.4 in North 18.5 mph 18.5 mph 48 % 0.0 in 98.0 W/m2 CLR
16:33 9.4 °F -1.1 °F 1033.4 in NNW 18.5 mph 18.5 mph 48 % 0.0 in 86.0 W/m2 CLR
16:34 9.4 °F -1.1 °F 1033.7 in NW 18.5 mph 18.5 mph 48 % 0.0 in 84.0 W/m2 CLR
16:39 9.4 °F -0.7 °F 1033.7 in NNW 16.7 mph 16.7 mph 49 % 0.0 in 69.0 W/m2 FEW
16:44 9.4 °F -0.7 °F 1033.7 in Calm     49 % 0.0 in 54.0 W/m2 SCT
16:49 8.9 °F -1.3 °F 1033.7 in NW 11.3 mph 11.3 mph 49 % 0.0 in 47.0 W/m2 SCT
16:51 8.9 °F -1.3 °F 1033.4 in NW 13.0 mph 13.0 mph 49 % 0.0 in 46.0 W/m2 SCT
16:52 8.9 °F -1.3 °F 1033.4 in NNW 17.7 mph 17.7 mph 49 % 0.0 in 39.0 W/m2 BKN
16:56 8.9 °F -1.3 °F 1033.4 in NW 14.8 mph 14.8 mph 49 % 0.0 in 35.0 W/m2 BKN
17:00 8.9 °F -1.3 °F 1033.4 in NW 11.1 mph 11.1 mph 49 % 0.0 in 28.0 W/m2 BKN
17:01 8.9 °F -1.3 °F 1033.4 in NW 9.3 mph 9.3 mph 49 % 0.0 in 25.0 W/m2 BKN
17:06 8.3 °F -1.5 °F 1033.7 in Calm     50 % 0.0 in 19.0 W/m2 BKN
17:08 8.3 °F -1.5 °F 1033.7 in NW 7.4 mph 7.4 mph 50 % 0.0 in 18.0 W/m2 BKN
17:12 8.3 °F -1.5 °F 1033.7 in NNW 12.9 mph 12.9 mph 50 % 0.0 in 14.0 W/m2 BKN
17:17 8.3 °F -1.2 °F 1033.7 in NNW 11.1 mph 11.1 mph 51 % 0.0 in 12.0 W/m2 BKN
17:18 8.3 °F -1.2 °F 1033.7 in NW 8.0 mph 8.0 mph 51 % 0.0 in 12.0 W/m2 BKN
17:23 7.8 °F -1.5 °F 1033.7 in NNW 9.7 mph 9.7 mph 52 % 0.0 in 11.0 W/m2 BKN
17:24 7.8 °F -1.5 °F 1033.7 in NW 9.3 mph 9.3 mph 52 % 0.0 in 9.0 W/m2 BKN
17:26 7.8 °F -1.5 °F 1033.7 in NW 7.4 mph 7.4 mph 52 % 0.0 in 9.0 W/m2 BKN
17:31 7.2 °F -1.7 °F 1033.7 in Calm     53 % 0.0 in 5.0 W/m2 OVC
17:35 6.7 °F -2.0 °F 1033.7 in Calm     54 % 0.0 in 5.0 W/m2 OVC
17:37 6.7 °F -2.0 °F 1033.7 in Calm     54 % 0.0 in 0.0 W/m2 OVC
17:42 6.1 °F -2.5 °F 1033.7 in Calm     54 % 0.0 in 0.0 W/m2 OVC
17:43 6.1 °F -2.5 °F 1034.1 in Calm     54 % 0.0 in 0.0 W/m2 OVC
17:46 5.6 °F -3.1 °F 1034.1 in Calm     54 % 0.0 in 0.0 W/m2 CLR
17:48 5.0 °F -3.6 °F 1034.1 in Calm     54 % 0.0 in 0.0 W/m2 CLR
17:54 4.4 °F -3.8 °F 1034.1 in Calm     55 % 0.0 in 0.0 W/m2 CLR
17:57 4.4 °F -3.8 °F 1034.1 in Calm     55 % 0.0 in 0.0 W/m2 CLR
17:58 4.4 °F -3.6 °F 1034.1 in Calm     56 % 0.0 in 0.0 W/m2 CLR
18:02 3.9 °F -4.1 °F 1034.1 in Calm     56 % 0.0 in 0.0 W/m2 CLR
18:03 3.9 °F -4.1 °F 1034.1 in Calm     56 % 0.0 in 0.0 W/m2 CLR
18:08 3.9 °F -3.9 °F 1034.1 in Calm     57 % 0.0 in 0.0 W/m2 CLR
18:09 3.9 °F -3.9 °F 1034.1 in Calm     57 % 0.0 in 0.0 W/m2 CLR
18:14 3.3 °F -4.2 °F 1034.1 in Calm     58 % 0.0 in 0.0 W/m2 CLR
18:15 3.3 °F -4.2 °F 1034.1 in Calm     58 % 0.0 in 0.0 W/m2 CLR
18:16 3.3 °F -3.9 °F 1034.1 in Calm     59 % 0.0 in 0.0 W/m2 CLR
18:21 2.8 °F -4.4 °F 1034.4 in Calm     59 % 0.0 in 0.0 W/m2 CLR
18:22 2.8 °F -4.4 °F 1034.4 in Calm     59 % 0.0 in 0.0 W/m2 CLR
18:27 2.2 °F -4.8 °F 1034.4 in Calm     60 % 0.0 in 0.0 W/m2 CLR
18:28 2.2 °F -4.8 °F 1034.4 in Calm     60 % 0.0 in 0.0 W/m2 CLR
18:33 2.2 °F -4.6 °F 1034.4 in Calm     61 % 0.0 in 0.0 W/m2 CLR
18:34 2.2 °F -4.6 °F 1034.4 in Calm     61 % 0.0 in 0.0 W/m2 CLR
18:39 1.7 °F -5.1 °F 1034.8 in Calm     61 % 0.0 in 0.0 W/m2 CLR
18:40 1.7 °F -5.1 °F 1034.8 in Calm     61 % 0.0 in 0.0 W/m2 CLR
18:45 1.7 °F -4.8 °F 1034.8 in Calm     62 % 0.0 in 0.0 W/m2 CLR
18:47 1.7 °F -4.8 °F 1034.4 in WNW 1.6 mph 1.6 mph 62 % 0.0 in 0.0 W/m2 CLR
18:50 1.7 °F -4.6 °F 1034.8 in West 3.7 mph 3.7 mph 63 % 0.0 in 0.0 W/m2 CLR
18:55 1.7 °F -4.6 °F 1034.8 in West 1.9 mph   63 % 0.0 in 0.0 W/m2 CLR
18:56 1.7 °F -4.6 °F 1034.8 in Calm     63 % 0.0 in 0.0 W/m2 CLR
19:01 2.2 °F -4.1 °F 1034.8 in WSW 7.4 mph 7.4 mph 63 % 0.0 in 0.0 W/m2 CLR
19:02 2.2 °F -4.1 °F 1034.8 in West 3.7 mph 3.7 mph 63 % 0.0 in 0.0 W/m2 CLR
19:06 1.7 °F -4.6 °F 1034.8 in West 7.4 mph 7.4 mph 63 % 0.0 in 0.0 W/m2 CLR
19:07 1.7 °F -4.4 °F 1034.8 in West 5.6 mph 5.6 mph 64 % 0.0 in 0.0 W/m2 CLR
19:12 1.7 °F -4.2 °F 1034.8 in West 6.4 mph 6.4 mph 65 % 0.0 in 0.0 W/m2 CLR
19:14 1.1 °F -4.6 °F 1034.8 in West 11.3 mph 11.3 mph 66 % 0.0 in 0.0 W/m2 CLR
19:19 1.1 °F -4.3 °F 1034.8 in WNW 11.1 mph 11.1 mph 67 % 0.0 in 0.0 W/m2 CLR
19:20 1.1 °F -4.3 °F 1034.8 in WNW 11.1 mph 11.1 mph 67 % 0.0 in 0.0 W/m2 CLR
19:25 1.1 °F -4.7 °F 1034.8 in Calm     65 % 0.0 in 0.0 W/m2 CLR
19:26 1.1 °F -4.7 °F 1034.8 in West 9.3 mph 9.3 mph 65 % 0.0 in 0.0 W/m2 CLR
19:31 1.1 °F -4.9 °F 1034.8 in Calm     64 % 0.0 in 0.0 W/m2 CLR
19:36 1.1 °F -4.9 °F 1035.1 in Calm     64 % 0.0 in 0.0 W/m2 CLR
19:41 0.6 °F -5.1 °F 1035.1 in Calm     66 % 0.0 in 0.0 W/m2 CLR
19:46 0.6 °F -4.9 °F 1035.1 in Calm     67 % 0.0 in 0.0 W/m2 CLR
19:47 0.6 °F -4.9 °F 1035.1 in Calm     67 % 0.0 in 0.0 W/m2 CLR
19:49 0.6 °F -4.9 °F 1035.4 in Calm     67 % 0.0 in 0.0 W/m2 CLR
19:52 0.6 °F -4.9 °F 1035.4 in Calm     67 % 0.0 in 0.0 W/m2 CLR
19:57 0.0 °F -5.2 °F 1035.1 in WNW 9.3 mph 9.3 mph 68 % 0.0 in 0.0 W/m2 CLR
19:58 0.0 °F -5.2 °F 1035.1 in WNW 9.7 mph 9.7 mph 68 % 0.0 in 0.0 W/m2 CLR
20:03 0.0 °F -5.4 °F 1035.1 in WNW 13.0 mph 13.0 mph 67 % 0.0 in 0.0 W/m2 CLR
20:08 0.0 °F -5.8 °F 1035.1 in Calm     65 % 0.0 in 0.0 W/m2 CLR
20:09 0.0 °F -5.8 °F 1035.1 in Calm     65 % 0.0 in 0.0 W/m2 CLR
20:14 0.0 °F -6.0 °F 1035.4 in Calm     64 % 0.0 in 0.0 W/m2 CLR
20:15 0.0 °F -6.2 °F 1035.4 in Calm     63 % 0.0 in 0.0 W/m2 CLR
20:17 -0.6 °F -6.7 °F 1035.4 in Calm     63 % 0.0 in 0.0 W/m2 CLR
20:22 -0.6 °F -6.3 °F 1035.4 in Calm     65 % 0.0 in 0.0 W/m2 CLR
20:27 -0.6 °F -6.1 °F 1035.4 in Calm     66 % 0.0 in 0.0 W/m2 CLR
20:28 -0.6 °F -6.1 °F 1035.4 in Calm     66 % 0.0 in 0.0 W/m2 CLR
20:32 -0.6 °F -5.9 °F 1035.4 in Calm     67 % 0.0 in 0.0 W/m2 CLR
20:33 -0.6 °F -5.9 °F 1035.4 in Calm     67 % 0.0 in 0.0 W/m2 CLR
20:38 -1.1 °F -5.9 °F 1035.4 in Calm     70 % 0.0 in 0.0 W/m2 CLR
20:43 -0.6 °F -5.2 °F 1035.4 in West 5.6 mph 5.6 mph 71 % 0.0 in 0.0 W/m2 CLR
20:44 -0.6 °F -5.2 °F 1035.4 in West 5.6 mph 5.6 mph 71 % 0.0 in 0.0 W/m2 CLR
20:48 -0.6 °F -5.3 °F 1035.4 in West 5.6 mph 5.6 mph 70 % 0.0 in 0.0 W/m2 CLR
20:49 -0.6 °F -5.3 °F 1035.4 in WNW 5.6 mph 5.6 mph 70 % 0.0 in 0.0 W/m2 CLR
20:54 -0.6 °F -5.3 °F 1035.4 in Calm     70 % 0.0 in 0.0 W/m2 CLR
20:55 -0.6 °F -5.6 °F 1035.4 in Calm     69 % 0.0 in 0.0 W/m2 CLR
20:57 -1.1 °F -6.1 °F 1035.4 in Calm     69 % 0.0 in 0.0 W/m2 CLR
21:02 -1.1 °F -6.1 °F 1035.4 in WNW 9.3 mph 9.3 mph 69 % 0.0 in 0.0 W/m2 CLR
21:03 -1.1 °F -6.1 °F 1035.4 in WNW 7.4 mph 7.4 mph 69 % 0.0 in 0.0 W/m2 CLR
21:07 -1.1 °F -6.4 °F 1035.4 in Calm     67 % 0.0 in 0.0 W/m2 CLR
21:12 -1.1 °F -6.4 °F 1035.4 in Calm     67 % 0.0 in 0.0 W/m2 CLR
21:13 -1.1 °F -6.4 °F 1035.4 in Calm     67 % 0.0 in 0.0 W/m2 CLR
21:14 -1.1 °F -6.4 °F 1035.4 in Calm     67 % 0.0 in 0.0 W/m2 CLR
21:18 -1.1 °F -6.3 °F 1035.4 in Calm     68 % 0.0 in 0.0 W/m2 CLR
21:21 -1.1 °F -6.1 °F 1035.4 in Calm     69 % 0.0 in 0.0 W/m2 CLR
21:24 -1.1 °F -5.9 °F 1035.4 in Calm     70 % 0.0 in 0.0 W/m2 CLR
21:29 -1.7 °F -6.2 °F 1035.8 in Calm     71 % 0.0 in 0.0 W/m2 CLR
21:30 -1.7 °F -6.1 °F 1035.8 in Calm     72 % 0.0 in 0.0 W/m2 CLR
21:35 -1.7 °F -6.1 °F 1035.8 in Calm     72 % 0.0 in 0.0 W/m2 CLR
21:36 -1.7 °F -6.1 °F 1035.8 in Calm     72 % 0.0 in 0.0 W/m2 CLR
21:39 -1.7 °F -5.9 °F 1035.8 in Calm     73 % 0.0 in 0.0 W/m2 CLR
21:41 -1.7 °F -5.9 °F 1035.8 in Calm     73 % 0.0 in 0.0 W/m2 CLR
21:46 -2.2 °F -6.6 °F 1035.8 in Calm     72 % 0.0 in 0.0 W/m2 CLR
21:47 -2.2 °F -6.6 °F 1035.8 in Calm     72 % 0.0 in 0.0 W/m2 CLR
21:52 -2.2 °F -6.4 °F 1035.8 in Calm     73 % 0.0 in 0.0 W/m2 CLR
21:56 -2.2 °F -6.2 °F 1035.8 in Calm     74 % 0.0 in 0.0 W/m2 CLR
21:58 -2.2 °F -6.2 °F 1035.8 in Calm     74 % 0.0 in 0.0 W/m2 CLR
22:02 -2.2 °F -6.2 °F 1035.8 in Calm     74 % 0.0 in 0.0 W/m2 CLR
22:04 -2.2 °F -6.1 °F 1035.8 in Calm     75 % 0.0 in 0.0 W/m2 CLR
22:09 -2.2 °F -6.1 °F 1035.8 in Calm     75 % 0.0 in 0.0 W/m2 CLR
22:14 -2.2 °F -6.1 °F 1035.8 in Calm     75 % 0.0 in 0.0 W/m2 CLR
22:16 -2.2 °F -5.9 °F 1036.1 in Calm     76 % 0.0 in 0.0 W/m2 CLR
22:17 -2.2 °F -6.1 °F 1036.1 in Calm     75 % 0.0 in 0.0 W/m2 CLR
22:21 -2.2 °F -6.1 °F 1036.1 in Calm     75 % 0.0 in 0.0 W/m2 CLR
22:23 -2.2 °F -6.1 °F 1036.1 in Calm     75 % 0.0 in 0.0 W/m2 CLR
22:27 -2.2 °F -6.1 °F 1035.8 in Calm     75 % 0.0 in 0.0 W/m2 CLR
22:30 -2.2 °F -5.9 °F 1035.8 in Calm     76 % 0.0 in 0.0 W/m2 CLR
22:35 -2.2 °F -6.1 °F 1036.1 in Calm     75 % 0.0 in 0.0 W/m2 CLR
22:37 -2.2 °F -5.9 °F 1036.1 in Calm     76 % 0.0 in 0.0 W/m2 CLR
22:41 -2.2 °F -5.9 °F 1036.1 in Calm     76 % 0.0 in 0.0 W/m2 CLR
22:46 -2.8 °F -6.3 °F 1036.1 in Calm     77 % 0.0 in 0.0 W/m2 CLR
22:51 -2.8 °F -6.3 °F 1036.1 in Calm     77 % 0.0 in 0.0 W/m2 CLR
22:53 -2.8 °F -6.1 °F 1036.1 in Calm     78 % 0.0 in 0.0 W/m2 CLR
22:58 -2.8 °F -6.1 °F 1036.1 in Calm     78 % 0.0 in 0.0 W/m2 CLR
22:59 -2.8 °F -6.1 °F 1036.1 in Calm     78 % 0.0 in 0.0 W/m2 CLR
23:01 -2.8 °F -6.1 °F 1036.1 in Calm     78 % 0.0 in 0.0 W/m2 CLR
23:06 -2.8 °F -6.1 °F 1036.1 in Calm     78 % 0.0 in 0.0 W/m2 CLR
23:08 -2.8 °F -6.1 °F 1036.1 in Calm     78 % 0.0 in 0.0 W/m2 CLR
23:10 -3.3 °F -6.6 °F 1036.1 in Calm     78 % 0.0 in 0.0 W/m2 CLR
23:13 -3.3 °F -6.4 °F 1036.1 in Calm     79 % 0.0 in 0.0 W/m2 CLR
23:18 -3.3 °F -6.3 °F 1036.1 in Calm     80 % 0.0 in 0.0 W/m2 CLR
23:20 -3.3 °F -6.3 °F 1036.1 in Calm     80 % 0.0 in 0.0 W/m2 CLR
23:22 -3.3 °F -6.3 °F 1036.1 in Calm     80 % 0.0 in 0.0 W/m2 CLR
23:26 -3.3 °F -6.3 °F 1036.1 in Calm     80 % 0.0 in 0.0 W/m2 CLR
23:29 -3.3 °F -6.3 °F 1036.1 in Calm     80 % 0.0 in 0.0 W/m2 CLR
23:32 -3.3 °F -6.3 °F 1036.1 in Calm     80 % 0.0 in 0.0 W/m2 CLR
23:37 -2.8 °F -5.7 °F 1036.1 in Calm     80 % 0.0 in 0.0 W/m2 CLR
23:38 -2.8 °F -5.7 °F 1036.1 in Calm     80 % 0.0 in 0.0 W/m2 CLR
23:42 -2.8 °F -5.7 °F 1036.1 in Calm     80 % 0.0 in 0.0 W/m2 CLR
23:47 -2.8 °F -5.7 °F 1036.1 in Calm     80 % 0.0 in 0.0 W/m2 CLR
23:48 -2.8 °F -5.6 °F 1036.5 in Calm     81 % 0.0 in 0.0 W/m2 CLR
23:53 -2.8 °F -5.7 °F 1036.5 in Calm     80 % 0.0 in 0.0 W/m2 CLR
23:55 -2.8 °F -5.7 °F 1036.1 in Calm     80 % 0.0 in 0.0 W/m2 CLR
Lo Temps de Massalio
Compliments of Weather Underground - 1.75 mb